You are not logged in, Click here to log in
Calvi-Sainte-Catherine Airport / LFKC Calvi/Sainte-Catherine
ICAO: LFKC Country: Calvi/Sainte-Catherine
Latitude: 42.5244 Longitude: 8.79306
Total Arrivals: 1 Total Departures: 1
Latest Arrival: (-). Latest Departure: A57581 (LFKC-LFPG)Lun. Wang
Scenery:
METAR : LFKC 090700Z AUTO VRB02KT CAVOK 30/14 Q1016 NOSIG

Calvi-Sainte-Catherine Airport